Time;durP1;ratioP1;P1;durP2;ratioP2;P2;SDS_P1;SDS_P2;PMS_P1;PMS_P2;Temp;Humidity;BMP_temperature;BMP_pressure;BME280_temperature;BME280_humidity;BME280_pressure;Samples;Min_cycle;Max_cycle;Signal;HPM_P1;HPM_P2
2022/08/07 00:00:49;;;;;;;5.40;5.03;;;;;;;22.31;63.55;64309.50;4946870;29;20195;-78
2022/08/07 00:03:16;;;;;;;4.57;4.38;;;;;;;22.33;63.38;64305.88;4947772;29;20487;-78
2022/08/07 00:05:43;;;;;;;5.05;4.55;;;;;;;22.30;64.19;64307.94;4946698;29;20200;-78
2022/08/07 00:08:10;;;;;;;4.63;4.32;;;;;;;22.07;65.87;64281.31;4947314;29;20236;-78
2022/08/07 00:10:37;;;;;;;5.43;5.03;;;;;;;22.13;65.40;64295.34;4948002;29;20361;-78
2022/08/07 00:13:05;;;;;;;5.68;5.22;;;;;;;22.07;65.81;64283.91;4947170;29;20413;-78
2022/08/07 00:15:34;;;;;;;4.90;4.47;;;;;;;22.13;65.21;64293.28;4946642;29;20196;-77
2022/08/07 00:18:01;;;;;;;5.57;5.10;;;;;;;22.09;65.43;64286.00;4948114;29;20505;-78
2022/08/07 00:20:27;;;;;;;5.43;5.03;;;;;;;22.11;65.28;64288.59;4946409;29;20208;-78
2022/08/07 00:22:54;;;;;;;5.38;4.97;;;;;;;22.11;66.22;64288.59;4947278;29;20197;-78
2022/08/07 00:25:23;;;;;;;6.55;5.25;;;;;;;22.09;66.46;64286.50;4947427;29;20207;-78
2022/08/07 00:27:50;;;;;;;5.50;5.00;;;;;;;22.04;67.39;64285.97;4946575;29;20269;-78
2022/08/07 00:30:17;;;;;;;5.60;5.15;;;;;;;22.01;66.70;64280.75;4947986;29;20242;-77
2022/08/07 00:32:47;;;;;;;5.15;4.78;;;;;;;22.01;66.79;64272.44;4946647;29;20276;-78
2022/08/07 00:35:14;;;;;;;5.40;5.00;;;;;;;21.99;67.00;64272.94;4947223;29;20224;-78
2022/08/07 00:37:41;;;;;;;5.60;5.10;;;;;;;21.94;67.47;64272.91;4947100;29;20208;-78
2022/08/07 00:40:09;;;;;;;5.10;4.50;;;;;;;21.95;67.57;64271.88;4947014;29;20575;-78
2022/08/07 00:42:36;;;;;;;5.72;4.93;;;;;;;22.01;68.02;64282.81;4947225;29;20200;-78
2022/08/07 00:45:04;;;;;;;5.38;4.97;;;;;;;22.00;67.98;64276.59;4947722;29;20235;-78
2022/08/07 00:47:31;;;;;;;5.35;5.05;;;;;;;21.99;67.97;64273.47;4946508;29;20204;-76
2022/08/07 00:49:59;;;;;;;5.35;4.97;;;;;;;21.98;67.87;64275.03;4946089;29;20295;-78
2022/08/07 00:52:26;;;;;;;5.38;5.07;;;;;;;22.02;68.08;64278.69;4946827;29;20259;-78
2022/08/07 00:54:53;;;;;;;5.78;4.45;;;;;;;22.04;69.17;64278.69;4947105;29;20221;-77
2022/08/07 00:57:21;;;;;;;4.90;4.53;;;;;;;22.02;68.32;64281.78;4946705;29;20196;-77
2022/08/07 00:59:48;;;;;;;5.28;4.97;;;;;;;21.97;67.87;64271.38;4947244;29;20413;-78
2022/08/07 01:02:15;;;;;;;4.97;4.68;;;;;;;22.05;67.93;64289.59;4948301;29;20201;-77
2022/08/07 01:04:42;;;;;;;5.18;4.85;;;;;;;22.08;67.46;64285.47;4950431;29;20572;-77
2022/08/07 01:07:11;;;;;;;5.13;4.72;;;;;;;22.07;67.55;64283.91;4951402;29;20391;-78
2022/08/07 01:09:38;;;;;;;5.68;5.18;;;;;;;22.11;67.69;64286.00;4950502;29;20519;-76
2022/08/07 01:12:06;;;;;;;5.85;5.38;;;;;;;22.11;68.26;64288.06;4950110;29;20232;-77
2022/08/07 01:14:33;;;;;;;6.65;4.85;;;;;;;22.10;67.75;64287.56;4949868;29;20220;-78
2022/08/07 01:17:00;;;;;;;5.13;4.82;;;;;;;22.05;67.93;64284.41;4951083;29;20197;-77
2022/08/07 01:19:30;;;;;;;5.13;4.72;;;;;;;22.00;68.11;64282.31;4950690;29;20224;-77
2022/08/07 01:21:59;;;;;;;5.88;5.22;;;;;;;21.95;68.58;64274.47;4950288;29;20208;-78
2022/08/07 01:24:27;;;;;;;5.05;4.63;;;;;;;21.97;68.94;64276.03;4950035;29;20275;-77
2022/08/07 01:26:54;;;;;;;5.72;5.18;;;;;;;21.89;69.75;64267.69;4950085;29;20284;-77
2022/08/07 01:29:23;;;;;;;5.28;4.88;;;;;;;21.94;69.25;64270.84;4950340;29;20220;-77
2022/08/07 01:31:51;;;;;;;7.88;5.43;;;;;;;21.89;69.50;64262.50;4950377;29;20224;-78
2022/08/07 01:34:19;;;;;;;5.80;5.30;;;;;;;21.90;69.36;64271.31;4950736;29;20258;-77
2022/08/07 01:36:46;;;;;;;5.40;4.90;;;;;;;21.82;70.08;64255.69;4949847;29;20200;-78
2022/08/07 01:39:14;;;;;;;5.22;4.72;;;;;;;21.85;69.39;64261.44;4949890;29;20230;-77
2022/08/07 01:41:43;;;;;;;6.07;5.57;;;;;;;21.79;71.50;64253.09;4949549;29;20204;-76
2022/08/07 01:44:11;;;;;;;8.32;5.95;;;;;;;21.69;71.44;64244.69;4949518;29;20235;-77
2022/08/07 01:46:40;;;;;;;5.60;4.97;;;;;;;21.65;72.36;64241.03;4950409;29;20223;-78
2022/08/07 01:49:07;;;;;;;5.78;5.28;;;;;;;21.68;72.00;64241.56;4950574;29;20220;-77
2022/08/07 01:51:36;;;;;;;5.50;5.03;;;;;;;21.74;72.59;64249.91;4949432;29;20232;-77
2022/08/07 01:54:06;;;;;;;5.63;5.10;;;;;;;21.75;72.18;64254.09;4949747;29;20251;-77
2022/08/07 01:56:41;;;;;;;5.88;5.38;;;;;;;21.76;72.12;64249.41;4949572;29;20193;-78
2022/08/07 01:59:14;;;;;;;5.80;5.30;;;;;;;21.87;72.04;64263.50;4949265;29;20248;-78
2022/08/07 02:01:46;;;;;;;5.90;5.50;;;;;;;21.84;71.61;64262.97;4950902;29;20197;-78
2022/08/07 02:04:22;;;;;;;6.15;5.60;;;;;;;21.67;71.57;64237.94;4949446;29;20227;-76
2022/08/07 02:06:49;;;;;;;6.00;5.50;;;;;;;21.45;75.63;64219.63;4948785;29;20218;-76
2022/08/07 02:09:18;;;;;;;6.05;5.60;;;;;;;21.37;77.55;64211.78;4948634;29;20229;-77
2022/08/07 02:11:50;;;;;;;5.97;5.47;;;;;;;21.42;76.68;64219.59;4949160;29;20291;-78
2022/08/07 02:14:19;;;;;;;6.47;5.55;;;;;;;21.50;76.51;64222.75;4948782;29;20287;-77
2022/08/07 02:16:49;;;;;;;6.28;5.50;;;;;;;21.53;78.03;64225.91;4949012;29;20204;-78
2022/08/07 02:19:17;;;;;;;6.80;6.30;;;;;;;21.34;79.53;64211.25;4950348;29;20260;-78
2022/08/07 02:21:45;;;;;;;6.85;6.25;;;;;;;21.22;83.00;64195.59;4948596;29;20208;-78
2022/08/07 02:24:14;;;;;;;7.28;6.57;;;;;;;21.05;85.81;64175.25;4948897;29;20220;-78
2022/08/07 02:26:42;;;;;;;6.28;5.88;;;;;;;20.90;92.84;64160.09;4950224;29;20212;-78
2022/08/07 02:29:11;;;;;;;7.32;6.45;;;;;;;20.75;96.32;64149.09;4948998;29;20260;-78
2022/08/07 02:31:39;;;;;;;7.88;7.15;;;;;;;20.62;98.70;64133.97;4949037;29;20299;-77
2022/08/07 02:34:07;;;;;;;7.20;6.50;;;;;;;20.57;99.81;64130.81;4949061;29;20292;-78
2022/08/07 02:36:36;;;;;;;8.32;6.95;;;;;;;20.47;100.00;64120.38;4948629;29;20252;-77
2022/08/07 02:39:05;;;;;;;7.78;7.07;;;;;;;20.38;100.00;64101.16;4949057;29;20229;-77
2022/08/07 02:41:33;;;;;;;7.57;6.88;;;;;;;20.35;100.00;64107.84;4949488;29;20220;-78
2022/08/07 02:44:02;;;;;;;7.43;6.78;;;;;;;20.26;100.00;64095.88;4948028;29;20228;-77
2022/08/07 02:46:34;;;;;;;7.53;6.82;;;;;;;20.18;100.00;64090.09;4948843;29;20208;-77
2022/08/07 02:49:01;;;;;;;6.95;6.43;;;;;;;20.19;100.00;64086.00;4948777;29;20224;-78
2022/08/07 02:51:30;;;;;;;7.65;7.00;;;;;;;20.06;100.00;64074.97;4947854;29;20232;-77
2022/08/07 02:53:59;;;;;;;8.82;6.93;;;;;;;20.03;100.00;64069.81;4950291;29;20228;-77
2022/08/07 02:56:29;;;;;;;7.10;6.38;;;;;;;20.08;100.00;64071.91;4948903;29;20205;-77
2022/08/07 02:59:00;;;;;;;7.80;7.10;;;;;;;20.05;100.00;64073.94;4948284;29;20228;-77
2022/08/07 03:01:29;;;;;;;6.55;5.95;;;;;;;20.10;100.00;64084.88;4948337;29;20196;-77
2022/08/07 03:03:58;;;;;;;7.20;6.18;;;;;;;20.16;100.00;64085.44;4948448;29;20248;-77
2022/08/07 03:06:26;;;;;;;7.05;6.38;;;;;;;20.18;100.00;64090.09;4947929;29;20216;-77
2022/08/07 03:08:55;;;;;;;6.05;5.55;;;;;;;20.25;100.00;64092.25;4949095;29;20416;-77
2022/08/07 03:11:22;;;;;;;6.35;5.95;;;;;;;20.25;100.00;64097.41;4949567;29;20232;-77
2022/08/07 03:13:49;;;;;;;7.00;6.30;;;;;;;20.20;100.00;64090.16;4947581;29;20221;-79
2022/08/07 03:16:17;;;;;;;7.18;6.50;;;;;;;20.23;100.00;64095.31;4947873;29;20204;-77
2022/08/07 03:18:44;;;;;;;8.88;6.80;;;;;;;20.35;100.00;64100.09;4948554;29;20268;-78
2022/08/07 03:21:12;;;;;;;6.97;6.43;;;;;;;20.40;100.00;64107.91;4948643;29;20422;-78
2022/08/07 03:23:41;;;;;;;6.75;6.25;;;;;;;20.41;100.00;64114.13;4949809;29;20248;-77
2022/08/07 03:26:10;;;;;;;6.88;6.28;;;;;;;20.57;100.00;64128.75;4947559;29;20288;-77
2022/08/07 03:28:39;;;;;;;6.70;6.10;;;;;;;20.61;100.00;64129.81;4948373;29;20588;-76
2022/08/07 03:31:19;;;;;;;6.45;5.95;;;;;;;20.71;100.00;64140.25;4947934;29;20243;-77
2022/08/07 03:33:47;;;;;;;6.75;6.15;;;;;;;20.81;100.00;64153.28;4948422;29;20227;-77
2022/08/07 03:36:18;;;;;;;5.85;5.35;;;;;;;20.90;100.00;64162.69;4948352;29;20414;-79
2022/08/07 03:38:46;;;;;;;6.22;5.72;;;;;;;20.96;100.00;64163.78;4949004;29;20223;-77
2022/08/07 03:41:14;;;;;;;5.97;5.57;;;;;;;20.97;100.00;64170.00;4947988;29;20401;-78
2022/08/07 03:43:42;;;;;;;4.95;4.65;;;;;;;21.08;100.00;64184.09;4947296;29;20521;-77
2022/08/07 03:46:09;;;;;;;6.72;5.32;;;;;;;21.18;100.00;64194.53;4947298;29;20220;-78
2022/08/07 03:48:37;;;;;;;5.78;5.35;;;;;;;21.17;100.00;64193.50;4947613;29;20575;-78
2022/08/07 03:51:04;;;;;;;6.10;5.57;;;;;;;21.33;100.00;64209.69;4947818;29;20483;-80
2022/08/07 03:53:33;;;;;;;6.45;5.93;;;;;;;21.37;100.00;64208.66;4947866;29;20225;-78
2022/08/07 03:56:01;;;;;;;5.68;5.28;;;;;;;21.39;100.00;64219.06;4947880;29;20527;-78
2022/08/07 03:58:29;;;;;;;5.88;5.47;;;;;;;21.47;100.00;64222.22;4947375;29;20295;-79
2022/08/07 04:00:57;;;;;;;6.88;6.38;;;;;;;21.44;100.00;64218.56;4948249;29;20234;-78
2022/08/07 04:03:24;;;;;;;8.52;7.38;;;;;;;21.57;100.00;64227.50;4947810;29;20264;-78
2022/08/07 04:05:51;;;;;;;9.70;8.73;;;;;;;21.47;100.00;64221.69;4948689;29;20201;-78
2022/08/07 04:08:18;;;;;;;8.90;8.10;;;;;;;21.51;100.00;64223.28;4947537;29;20224;-78
2022/08/07 04:10:47;;;;;;;8.50;7.45;;;;;;;21.43;100.00;64217.53;4947880;29;20201;-79
2022/08/07 04:13:15;;;;;;;7.80;7.20;;;;;;;21.59;100.00;64232.16;4948167;29;20224;-79
2022/08/07 04:15:43;;;;;;;9.63;8.60;;;;;;;21.24;100.00;64195.09;4946396;29;20209;-76
2022/08/07 04:18:13;;;;;;;9.75;8.85;;;;;;;20.99;100.00;64176.75;4947492;29;20225;-78
2022/08/07 04:20:40;;;;;;;9.32;8.32;;;;;;;21.26;100.00;64197.69;4946669;29;20247;-77
2022/08/07 04:23:07;;;;;;;7.55;6.93;;;;;;;21.41;100.00;64215.44;4946990;29;20473;-78
2022/08/07 04:25:37;;;;;;;9.80;7.30;;;;;;;21.30;100.00;64201.88;4947792;29;20200;-78
2022/08/07 04:28:06;;;;;;;7.70;7.00;;;;;;;21.38;100.00;64207.63;4946654;29;20204;-78
2022/08/07 04:30:34;;;;;;;7.50;6.80;;;;;;;21.31;100.00;64202.91;4946532;29;20197;-77
2022/08/07 04:33:01;;;;;;;7.88;7.07;;;;;;;21.20;100.00;64198.69;4947081;29;20240;-77
2022/08/07 04:35:28;;;;;;;8.57;7.13;;;;;;;21.31;100.00;64205.00;4947171;29;20379;-77
2022/08/07 04:37:55;;;;;;;8.73;6.88;;;;;;;21.29;100.00;64200.31;4945972;29;20267;-78
2022/08/07 04:40:22;;;;;;;8.88;7.05;;;;;;;21.50;100.00;64224.84;4949003;29;20229;-78
2022/08/07 04:42:49;;;;;;;8.00;7.20;;;;;;;21.69;100.00;64244.69;4946423;29;20212;-78
2022/08/07 04:45:18;;;;;;;7.45;6.90;;;;;;;21.48;100.00;64220.69;4947107;29;20250;-78
2022/08/07 04:47:55;;;;;;;9.73;7.07;;;;;;;21.71;100.00;64246.78;4946775;29;20204;-79
2022/08/07 04:50:34;;;;;;;7.93;7.18;;;;;;;21.95;100.00;64271.88;4946962;29;20197;-77
2022/08/07 04:53:08;;;;;;;8.00;7.28;;;;;;;22.01;100.00;64272.97;4946733;29;20233;-77
2022/08/07 04:55:50;;;;;;;7.10;6.50;;;;;;;22.30;100.00;64305.34;4946932;29;20192;-77
2022/08/07 04:58:24;;;;;;;7.53;6.63;;;;;;;22.26;100.00;64304.28;4946712;29;20220;-79
2022/08/07 05:00:59;;;;;;;7.68;6.88;;;;;;;22.48;100.00;64324.16;4946984;29;20215;-77
2022/08/07 05:03:31;;;;;;;7.05;6.45;;;;;;;22.41;100.00;64317.38;4946129;29;20215;-78
2022/08/07 05:06:05;;;;;;;7.03;6.40;;;;;;;22.49;99.94;64325.19;4947259;29;20189;-77
2022/08/07 05:08:41;;;;;;;6.40;5.90;;;;;;;22.66;97.67;64343.50;4945986;29;20220;-78
2022/08/07 05:11:12;;;;;;;6.60;6.20;;;;;;;22.69;98.30;64346.66;4946365;29;20189;-77
2022/08/07 05:13:45;;;;;;;5.63;5.20;;;;;;;22.84;100.00;64367.00;4946927;29;20364;-78
2022/08/07 05:16:17;;;;;;;6.53;6.03;;;;;;;23.04;99.05;64387.41;4947015;29;20201;-76
2022/08/07 05:18:48;;;;;;;6.43;5.88;;;;;;;23.16;96.87;64397.38;4946216;29;20440;-78
2022/08/07 05:21:19;;;;;;;6.68;6.07;;;;;;;23.12;94.34;64388.50;4946501;29;20203;-77
2022/08/07 05:23:49;;;;;;;5.68;5.05;;;;;;;23.20;90.93;64402.06;4946362;29;20209;-78
2022/08/07 05:26:19;;;;;;;5.70;5.28;;;;;;;23.17;91.32;64398.41;4946584;29;20204;-78
2022/08/07 05:28:48;;;;;;;6.32;5.72;;;;;;;23.43;89.81;64423.03;4946412;29;20220;-77
2022/08/07 05:31:18;;;;;;;6.30;5.80;;;;;;;23.43;88.90;64431.34;4946300;29;20549;-78
2022/08/07 05:33:46;;;;;;;6.00;5.50;;;;;;;23.51;91.21;64434.50;4948890;29;20224;-78
2022/08/07 05:36:14;;;;;;;6.32;5.70;;;;;;;23.56;86.96;64439.75;4946290;29;20248;-77
2022/08/07 05:38:42;;;;;;;5.97;5.57;;;;;;;23.73;86.17;64457.53;4946601;29;20520;-77
2022/08/07 05:41:10;;;;;;;6.65;5.90;;;;;;;23.68;86.91;64454.91;4946732;29;20197;-78
2022/08/07 05:43:39;;;;;;;6.15;5.60;;;;;;;23.72;86.31;64456.50;4946860;29;20231;-79
2022/08/07 05:46:06;;;;;;;6.90;6.30;;;;;;;24.00;85.63;64483.19;4946666;29;20205;-78
2022/08/07 05:48:36;;;;;;;6.35;5.78;;;;;;;24.27;84.45;64513.00;4947152;29;20235;-79
2022/08/07 05:51:04;;;;;;;6.00;5.40;;;;;;;24.34;85.84;64517.75;4950709;29;20414;-78
2022/08/07 05:53:31;;;;;;;5.38;5.05;;;;;;;24.34;84.98;64522.94;4950422;29;20430;-78
2022/08/07 05:55:59;;;;;;;6.20;5.72;;;;;;;24.65;84.14;64550.72;4951131;29;20244;-78
2022/08/07 05:58:27;;;;;;;7.95;6.00;;;;;;;24.93;79.98;64584.75;4950033;29;20268;-79
2022/08/07 06:00:54;;;;;;;6.72;5.85;;;;;;;25.19;76.06;64612.00;4950369;29;20252;-78
2022/08/07 06:03:23;;;;;;;5.85;5.03;;;;;;;25.42;75.40;64636.09;4951163;29;20229;-78
2022/08/07 06:05:53;;;;;;;6.30;5.70;;;;;;;25.48;74.99;64639.78;4949805;29;20228;-78
2022/08/07 06:08:20;;;;;;;6.10;5.68;;;;;;;25.06;75.42;64598.38;4948548;29;20228;-76
2022/08/07 06:10:47;;;;;;;9.30;5.20;;;;;;;24.91;77.42;64580.59;4950712;29;20525;-78
2022/08/07 06:13:15;;;;;;;6.78;6.18;;;;;;;24.80;77.44;64569.06;4948607;29;20240;-76
2022/08/07 06:15:43;;;;;;;9.07;6.03;;;;;;;24.82;77.38;64571.16;4948984;29;20389;-78
2022/08/07 06:18:12;;;;;;;5.30;4.95;;;;;;;24.99;75.46;64583.22;4949765;29;20201;-79
2022/08/07 06:20:40;;;;;;;5.68;5.18;;;;;;;25.13;70.92;64602.59;4949777;29;20204;-78
2022/08/07 06:23:09;;;;;;;6.72;5.70;;;;;;;25.37;67.26;64628.25;4948632;29;20201;-77
2022/08/07 06:25:36;;;;;;;5.57;5.07;;;;;;;25.35;66.44;64628.22;4950974;29;20205;-78
2022/08/07 06:28:04;;;;;;;6.40;5.07;;;;;;;25.36;62.10;64624.06;4949010;29;20399;-78
2022/08/07 06:30:31;;;;;;;5.82;4.97;;;;;;;25.22;63.90;64619.81;4949382;29;20273;-78
2022/08/07 06:32:58;;;;;;;9.07;5.90;;;;;;;25.20;59.61;64610.44;4949379;29;20291;-78
2022/08/07 06:35:25;;;;;;;6.00;5.50;;;;;;;25.36;60.56;64629.28;4948981;29;20204;-78
2022/08/07 06:37:52;;;;;;;6.57;5.97;;;;;;;25.56;58.94;64648.16;4950296;29;20399;-79
2022/08/07 06:40:21;;;;;;;5.95;5.45;;;;;;;25.77;59.53;64669.66;4950634;29;20201;-78
2022/08/07 06:42:49;;;;;;;6.35;5.85;;;;;;;25.77;57.01;64672.78;4948965;29;20208;-78
2022/08/07 06:45:17;;;;;;;6.15;5.55;;;;;;;25.87;57.72;64685.34;4949284;29;20450;-78
2022/08/07 06:47:45;;;;;;;6.22;5.63;;;;;;;25.84;58.12;64680.13;4949278;29;20233;-78
2022/08/07 06:50:12;;;;;;;7.70;5.40;;;;;;;25.75;58.26;64664.94;4949829;29;20221;-75
2022/08/07 06:52:43;;;;;;;6.03;5.60;;;;;;;25.43;61.44;64637.16;4949388;29;20452;-78
2022/08/07 06:55:14;;;;;;;7.15;5.60;;;;;;;25.68;59.31;64658.13;4949305;29;20216;-77
2022/08/07 06:57:44;;;;;;;5.32;5.03;;;;;;;25.45;59.84;64636.66;4948426;29;20418;-76
2022/08/07 07:00:13;;;;;;;6.65;6.15;;;;;;;25.48;59.55;64641.88;4949380;29;20253;-78
2022/08/07 07:02:42;;;;;;;6.15;5.55;;;;;;;25.67;62.28;64664.38;4949633;29;20216;-77
2022/08/07 07:05:10;;;;;;;6.45;5.95;;;;;;;25.68;63.46;64665.97;4949663;29;20244;-79
2022/08/07 07:07:36;;;;;;;7.47;6.00;;;;;;;25.76;62.51;64668.59;4950148;29;20232;-76
2022/08/07 07:10:04;;;;;;;6.95;6.35;;;;;;;25.43;64.11;64639.78;4947864;29;20225;-77
2022/08/07 07:12:38;;;;;;;6.60;6.03;;;;;;;25.45;62.58;64636.13;4948510;29;20548;-78
2022/08/07 07:15:12;;;;;;;6.10;5.55;;;;;;;25.66;61.31;64661.25;4948627;29;20257;-79
2022/08/07 07:17:45;;;;;;;7.47;5.95;;;;;;;25.74;62.79;64669.13;4949239;29;20225;-79
2022/08/07 07:20:18;;;;;;;7.00;6.40;;;;;;;25.76;61.41;64671.22;4948381;29;20267;-77
2022/08/07 07:22:47;;;;;;;6.93;6.43;;;;;;;25.74;63.55;64669.66;4949192;29;20200;-77
2022/08/07 07:25:16;;;;;;;7.78;6.13;;;;;;;25.55;63.71;64644.50;4947982;29;20221;-76
2022/08/07 07:27:51;;;;;;;6.55;5.90;;;;;;;25.52;62.49;64643.44;4948136;29;20258;-77
2022/08/07 07:30:24;;;;;;;6.88;6.38;;;;;;;25.36;64.32;64629.81;4948970;29;20188;-78
2022/08/07 07:32:54;;;;;;;5.88;5.35;;;;;;;25.34;61.30;64627.19;4947444;29;20240;-78
2022/08/07 07:35:23;;;;;;;6.97;6.38;;;;;;;25.42;62.64;64638.72;4947818;29;20264;-77
2022/08/07 07:37:52;;;;;;;7.22;6.63;;;;;;;25.41;62.88;64635.06;4949146;29;20231;-79
2022/08/07 07:40:21;;;;;;;7.60;6.90;;;;;;;25.77;61.39;64672.78;4948235;29;20256;-81
2022/08/07 07:42:51;;;;;;;8.65;6.63;;;;;;;25.86;62.81;64682.22;4947255;29;20248;-76
2022/08/07 07:45:22;;;;;;;7.18;6.57;;;;;;;25.77;64.57;64669.66;4947743;29;20208;-77
2022/08/07 07:47:53;;;;;;;6.55;6.05;;;;;;;25.76;62.43;64666.53;4946849;29;20208;-76
2022/08/07 07:50:22;;;;;;;7.32;6.72;;;;;;;25.92;62.51;64685.88;4948306;29;20205;-77
2022/08/07 07:52:51;;;;;;;7.32;6.28;;;;;;;26.09;60.06;64703.72;4947223;29;20354;-76
2022/08/07 07:55:19;;;;;;;6.97;6.38;;;;;;;25.94;59.98;64690.59;4947539;29;20272;-77
2022/08/07 07:57:49;;;;;;;6.68;6.07;;;;;;;25.97;59.63;64693.75;4947621;29;20201;-78
2022/08/07 08:00:18;;;;;;;7.82;7.20;;;;;;;26.12;61.60;64706.88;4948340;29;20204;-79
2022/08/07 08:02:49;;;;;;;7.22;6.60;;;;;;;26.20;59.54;64717.88;4947866;29;20504;-76
2022/08/07 08:05:18;;;;;;;7.18;6.47;;;;;;;26.06;58.51;64703.19;4947774;29;20197;-78
2022/08/07 08:07:47;;;;;;;7.03;6.43;;;;;;;26.26;58.15;64720.50;4948056;29;20207;-79
2022/08/07 08:10:16;;;;;;;6.85;6.25;;;;;;;26.50;56.62;64748.28;4947651;29;20296;-77
2022/08/07 08:12:45;;;;;;;6.78;6.03;;;;;;;26.59;56.09;64755.66;4947416;29;20560;-77
2022/08/07 08:15:12;;;;;;;11.65;7.43;;;;;;;26.62;55.05;64761.41;4947318;29;20220;-76
2022/08/07 08:17:41;;;;;;;12.73;8.15;;;;;;;26.50;54.62;64748.28;4947607;29;20260;-76
2022/08/07 08:20:11;;;;;;;9.57;8.25;;;;;;;26.36;57.24;64731.53;4946666;29;20229;-77
2022/08/07 08:28:17;;;;;;;10.65;9.77;;;;;;;26.04;55.60;64703.72;4947091;29;20263;-76
2022/08/07 08:30:45;;;;;;;9.73;8.73;;;;;;;25.99;55.00;64693.22;4947135;29;20197;-77
2022/08/07 08:33:17;;;;;;;10.07;9.07;;;;;;;26.09;56.47;64705.81;4947392;29;20252;-77
2022/08/07 08:35:49;;;;;;;9.10;8.20;;;;;;;26.09;55.45;64700.59;4946557;29;20200;-78
2022/08/07 08:38:19;;;;;;;8.55;7.25;;;;;;;26.14;53.99;64711.06;4946811;29;20221;-78
2022/08/07 08:40:52;;;;;;;7.32;6.72;;;;;;;26.29;55.62;64724.19;4949310;29;20204;-78
2022/08/07 08:43:25;;;;;;;12.20;7.22;;;;;;;26.77;53.01;64776.63;4946950;29;20225;-77
2022/08/07 08:45:56;;;;;;;7.13;6.53;;;;;;;26.95;50.96;64790.28;4948845;29;20212;-77
2022/08/07 08:48:27;;;;;;;6.97;6.32;;;;;;;26.99;51.21;64797.59;4946904;29;20228;-79
2022/08/07 08:51:01;;;;;;;7.85;7.15;;;;;;;26.78;51.66;64778.19;4948268;29;20196;-77
2022/08/07 08:53:36;;;;;;;7.22;6.63;;;;;;;26.55;51.62;64753.53;4948338;29;20262;-78
2022/08/07 08:56:09;;;;;;;6.47;5.85;;;;;;;26.65;51.68;64767.16;4946505;29;20215;-78
2022/08/07 08:58:43;;;;;;;8.07;6.35;;;;;;;26.53;51.57;64748.81;4948093;29;20296;-77
2022/08/07 09:01:14;;;;;;;7.32;6.72;;;;;;;26.60;52.52;64756.16;4947525;29;20348;-77
2022/08/07 09:03:50;;;;;;;6.97;6.13;;;;;;;26.93;52.96;64793.94;4946469;29;20517;-78
2022/08/07 09:06:27;;;;;;;7.15;6.55;;;;;;;27.14;52.95;64818.06;4947660;29;20423;-77
2022/08/07 09:09:00;;;;;;;9.93;7.18;;;;;;;27.32;51.46;64836.94;4946737;29;20259;-77
2022/08/07 09:11:39;;;;;;;8.35;7.53;;;;;;;27.11;51.51;64812.81;4946636;29;20261;-78
2022/08/07 09:14:12;;;;;;;10.75;7.20;;;;;;;26.85;53.15;64782.91;4948728;29;20250;-78
2022/08/07 09:16:54;;;;;;;12.77;7.38;;;;;;;26.95;51.19;64787.66;4946258;29;20197;-76
2022/08/07 09:19:28;;;;;;;7.15;6.45;;;;;;;26.82;52.32;64779.25;4947153;29;20220;-77
2022/08/07 09:22:10;;;;;;;6.40;5.90;;;;;;;26.71;52.57;64770.84;4946790;29;20435;-78
2022/08/07 09:24:47;;;;;;;7.30;6.45;;;;;;;26.63;52.15;64767.16;4950632;29;20441;-77
2022/08/07 09:27:24;;;;;;;7.45;6.85;;;;;;;26.65;51.71;64759.31;4952530;29;20307;-78
2022/08/07 09:30:00;;;;;;;6.65;6.15;;;;;;;26.62;51.31;64761.41;4951362;29;20232;-78
2022/08/07 09:33:00;;;;;;;6.72;6.22;;;;;;;26.72;51.39;64774.50;4951282;29;20365;-78
2022/08/07 09:35:37;;;;;;;6.53;5.93;;;;;;;26.77;51.57;64776.63;4935751;29;20208;-78
2022/08/07 09:38:13;;;;;;;6.97;6.35;;;;;;;26.79;51.79;64778.72;4949930;29;20208;-78
2022/08/07 09:40:57;;;;;;;8.18;6.45;;;;;;;26.98;50.54;64801.78;4950797;29;20197;-77
2022/08/07 09:43:34;;;;;;;6.80;6.22;;;;;;;26.80;50.18;64777.16;4950645;29;20227;-77
2022/08/07 09:46:11;;;;;;;6.18;5.70;;;;;;;26.55;49.79;64748.28;4950128;29;20357;-76
2022/08/07 09:48:48;;;;;;;6.43;5.93;;;;;;;26.55;50.79;64751.44;4950446;29;20220;-77
2022/08/07 09:51:31;;;;;;;6.60;5.25;;;;;;;26.80;50.28;64779.78;4949938;29;20197;-78
2022/08/07 09:54:03;;;;;;;6.20;5.70;;;;;;;26.54;50.09;64753.00;4950074;29;20311;-78
2022/08/07 09:56:58;;;;;;;6.50;5.90;;;;;;;26.31;51.24;64726.28;4950376;29;20227;-78
2022/08/07 09:59:42;;;;;;;5.95;5.55;;;;;;;26.58;51.25;64756.66;4949784;29;20453;-77
2022/08/07 10:02:33;;;;;;;5.93;5.35;;;;;;;26.62;50.86;64758.78;4950689;29;20196;-79
2022/08/07 10:05:22;;;;;;;6.50;6.03;;;;;;;26.58;50.17;64754.06;4950259;29;20407;-77
2022/08/07 10:08:02;;;;;;;6.53;5.10;;;;;;;26.89;49.65;64789.72;4951012;29;20200;-78
2022/08/07 10:10:40;;;;;;;6.10;5.53;;;;;;;27.23;48.94;64822.25;4950350;29;20236;-78
2022/08/07 10:13:40;;;;;;;6.35;5.45;;;;;;;27.53;48.05;64847.97;4950387;29;20235;-77
2022/08/07 10:16:30;;;;;;;5.75;5.30;;;;;;;27.99;47.06;64904.16;4950141;29;20192;-78
2022/08/07 10:19:20;;;;;;;5.85;5.45;;;;;;;28.20;46.84;64929.34;4947570;29;20224;-80
2022/08/07 10:21:56;;;;;;;7.55;6.00;;;;;;;28.68;46.96;64978.72;4920535;29;20224;-77
2022/08/07 10:24:49;;;;;;;5.97;5.47;;;;;;;29.14;43.01;65021.81;4950771;29;20239;-78
2022/08/07 10:27:48;;;;;;;7.13;5.18;;;;;;;29.27;45.25;65038.09;4950031;29;20193;-79
2022/08/07 10:30:17;;;;;;;5.80;5.40;;;;;;;29.63;44.40;65073.31;4949706;29;20242;-78
2022/08/07 10:33:23;;;;;;;6.13;5.60;;;;;;;29.63;43.17;65072.78;4949619;29;20209;-77
2022/08/07 10:36:08;;;;;;;6.50;5.05;;;;;;;29.72;42.71;65084.88;4915212;29;20271;-77
2022/08/07 10:38:50;;;;;;;5.22;4.78;;;;;;;29.69;40.68;65084.88;4950009;29;20220;-78
2022/08/07 10:41:25;;;;;;;5.53;5.18;;;;;;;29.75;40.89;65083.31;4949831;29;20227;-79
2022/08/07 10:44:02;;;;;;;5.53;5.03;;;;;;;29.42;41.23;65051.22;4951063;29;20220;-76
2022/08/07 10:46:39;;;;;;;5.43;5.13;;;;;;;28.83;43.36;64989.22;4949325;29;20224;-78
2022/08/07 10:49:13;;;;;;;5.95;5.38;;;;;;;28.80;44.15;64989.22;4950061;29;20229;-77
2022/08/07 10:51:51;;;;;;;5.57;5.22;;;;;;;29.10;43.65;65015.50;4950942;29;20232;-78
2022/08/07 10:54:26;;;;;;;5.78;5.38;;;;;;;29.39;44.13;65055.94;4950068;29;20468;-77
2022/08/07 10:57:03;;;;;;;6.35;5.85;;;;;;;29.43;42.90;65052.28;4949386;29;20204;-78
2022/08/07 10:59:40;;;;;;;5.93;5.40;;;;;;;29.02;42.60;65011.81;4950097;29;20225;-76
2022/08/07 11:02:18;;;;;;;5.57;5.18;;;;;;;28.36;43.22;64943.53;4948449;29;20517;-77
2022/08/07 11:04:59;;;;;;;5.75;5.22;;;;;;;28.27;43.99;64936.69;4951051;29;20224;-77
2022/08/07 11:07:37;;;;;;;7.95;5.00;;;;;;;28.12;44.26;64918.31;4949654;29;20348;-79
2022/08/07 11:10:18;;;;;;;5.78;5.25;;;;;;;28.02;45.32;64907.31;4949903;29;20220;-78
2022/08/07 11:12:52;;;;;;;6.13;5.53;;;;;;;28.13;45.47;64918.84;4950032;29;20200;-79
2022/08/07 11:15:25;;;;;;;5.35;4.95;;;;;;;28.10;45.29;64916.22;4949330;29;20428;-78
2022/08/07 11:18:00;;;;;;;5.97;5.22;;;;;;;28.05;44.75;64913.59;4949043;29;20205;-76
2022/08/07 11:20:39;;;;;;;7.20;5.70;;;;;;;28.20;46.01;64926.72;4948800;29;20221;-78
2022/08/07 11:23:18;;;;;;;5.90;5.50;;;;;;;28.54;46.07;64964.00;4949561;29;20205;-79
2022/08/07 11:25:52;;;;;;;5.80;5.20;;;;;;;28.81;44.51;64987.66;4950127;29;20213;-79
2022/08/07 11:28:25;;;;;;;5.63;5.22;;;;;;;28.69;44.80;64977.13;4950518;29;20262;-77
2022/08/07 11:30:58;;;;;;;6.05;5.57;;;;;;;28.82;44.58;64988.19;4948004;29;20196;-77
2022/08/07 11:33:33;;;;;;;6.35;5.80;;;;;;;28.99;45.43;65008.66;4949058;29;20382;-78
2022/08/07 11:36:11;;;;;;;5.57;5.13;;;;;;;29.19;42.42;65027.06;4948421;29;20193;-79
2022/08/07 11:38:46;;;;;;;5.05;4.68;;;;;;;29.91;42.32;65102.75;4948815;29;20232;-78
2022/08/07 11:41:15;;;;;;;6.20;5.70;;;;;;;29.90;43.06;65101.16;4949524;29;20184;-78
2022/08/07 11:43:52;;;;;;;5.82;5.38;;;;;;;29.98;41.66;65112.72;4948475;29;20247;-77
2022/08/07 11:46:39;;;;;;;7.05;5.80;;;;;;;29.56;42.13;65068.03;4948318;29;20189;-79
2022/08/07 11:49:43;;;;;;;5.60;5.15;;;;;;;29.61;39.91;65073.28;4948010;29;20227;-79
2022/08/07 11:52:26;;;;;;;5.35;4.90;;;;;;;29.64;41.81;65073.81;4947233;29;20511;-77
2022/08/07 11:55:03;;;;;;;6.95;6.30;;;;;;;29.01;42.64;65016.00;4947682;29;20473;-78
2022/08/07 11:57:37;;;;;;;6.07;5.68;;;;;;;28.57;44.42;64962.44;4949153;29;20201;-77